createdAt,value
2022-08-11T00:01:50.582Z,5.65
2022-08-11T00:04:19.117Z,5.47
2022-08-11T00:06:48.858Z,5.47
2022-08-11T00:09:18.225Z,5.67
2022-08-11T00:11:46.559Z,5.15
2022-08-11T00:14:15.494Z,5.68
2022-08-11T00:16:43.371Z,5.30
2022-08-11T00:19:11.423Z,5.38
2022-08-11T00:22:04.125Z,5.70
2022-08-11T00:24:51.650Z,5.93
2022-08-11T00:27:32.113Z,5.57
2022-08-11T00:29:59.649Z,5.47
2022-08-11T00:32:27.920Z,5.50
2022-08-11T00:35:50.017Z,5.30
2022-08-11T00:37:46.490Z,5.20
2022-08-11T00:40:19.671Z,5.57
2022-08-11T00:42:49.585Z,5.60
2022-08-11T00:45:23.793Z,5.45
2022-08-11T00:48:00.278Z,5.20
2022-08-11T00:50:30.581Z,5.03
2022-08-11T00:53:06.744Z,5.50
2022-08-11T00:55:56.170Z,4.85
2022-08-11T00:58:38.568Z,5.15
2022-08-11T01:01:11.574Z,5.67
2022-08-11T01:03:55.372Z,5.35
2022-08-11T01:06:33.992Z,5.30
2022-08-11T01:09:21.893Z,5.38
2022-08-11T01:12:08.327Z,5.55
2022-08-11T01:14:53.936Z,5.77
2022-08-11T01:17:44.103Z,5.53
2022-08-11T01:20:45.542Z,5.03
2022-08-11T01:23:43.918Z,5.50
2022-08-11T01:26:27.277Z,5.40
2022-08-11T01:29:01.549Z,5.33
2022-08-11T01:31:59.027Z,5.30
2022-08-11T01:35:02.479Z,4.80
2022-08-11T01:37:44.830Z,5.15
2022-08-11T01:40:39.289Z,5.10
2022-08-11T01:43:41.962Z,5.37
2022-08-11T01:46:14.149Z,5.20
2022-08-11T01:48:43.968Z,5.15
2022-08-11T01:51:32.210Z,5.00
2022-08-11T01:54:04.270Z,5.13
2022-08-11T01:56:47.860Z,4.87
2022-08-11T01:59:18.555Z,5.35
2022-08-11T02:02:06.939Z,5.50
2022-08-11T02:04:35.791Z,5.25
2022-08-11T02:07:08.743Z,5.60
2022-08-11T02:09:53.149Z,5.07
2022-08-11T02:12:37.753Z,5.57
2022-08-11T02:15:12.592Z,5.40
2022-08-11T02:17:46.167Z,5.25
2022-08-11T02:20:35.307Z,4.80
2022-08-11T02:24:06.524Z,5.10
2022-08-11T02:26:12.352Z,5.20
2022-08-11T02:28:49.821Z,5.18
2022-08-11T02:32:25.168Z,5.70
2022-08-11T02:34:31.984Z,5.53
2022-08-11T02:37:04.017Z,5.50
2022-08-11T02:39:39.308Z,5.13
2022-08-11T02:42:35.874Z,5.80
2022-08-11T02:45:13.277Z,5.28
2022-08-11T02:48:05.978Z,5.10
2022-08-11T02:50:35.738Z,5.30
2022-08-11T02:53:08.266Z,5.80
2022-08-11T02:55:55.554Z,5.57
2022-08-11T02:58:31.780Z,5.75
2022-08-11T03:01:04.688Z,5.90
2022-08-11T03:03:37.176Z,6.00
2022-08-11T03:06:09.713Z,5.45
2022-08-11T03:08:51.362Z,5.72
2022-08-11T03:11:40.125Z,6.07
2022-08-11T03:14:32.502Z,6.10
2022-08-11T03:17:05.274Z,6.07
2022-08-11T03:19:37.928Z,6.32
2022-08-11T03:22:09.440Z,6.35
2022-08-11T03:24:47.411Z,6.13
2022-08-11T03:27:25.989Z,6.35
2022-08-11T03:30:02.814Z,6.77
2022-08-11T03:32:33.853Z,6.13
2022-08-11T03:35:03.055Z,6.28
2022-08-11T03:37:50.916Z,6.55
2022-08-11T03:40:40.779Z,6.85
2022-08-11T03:43:12.962Z,6.87
2022-08-11T03:45:49.718Z,6.50
2022-08-11T03:48:21.050Z,6.30
2022-08-11T03:50:55.160Z,6.75
2022-08-11T03:53:33.341Z,6.25
2022-08-11T03:56:27.942Z,6.53
2022-08-11T03:59:13.072Z,6.80
2022-08-11T04:01:55.178Z,6.43
2022-08-11T04:04:40.361Z,6.20
2022-08-11T04:07:31.237Z,6.65
2022-08-11T04:10:16.629Z,6.67
2022-08-11T04:12:55.468Z,6.50
2022-08-11T04:15:56.348Z,6.80
2022-08-11T04:18:47.522Z,6.47
2022-08-11T04:21:33.612Z,6.35
2022-08-11T04:24:35.148Z,6.83
2022-08-11T04:27:36.872Z,6.38
2022-08-11T04:30:11.973Z,7.20
2022-08-11T04:33:12.749Z,7.22
2022-08-11T04:35:48.624Z,6.85
2022-08-11T04:38:45.974Z,7.00
2022-08-11T04:41:34.553Z,7.00
2022-08-11T04:44:25.217Z,6.70
2022-08-11T04:47:07.146Z,6.82
2022-08-11T04:50:10.833Z,7.13
2022-08-11T04:53:10.925Z,7.00
2022-08-11T04:56:16.252Z,7.50
2022-08-11T04:59:11.814Z,6.80
2022-08-11T05:01:48.493Z,7.18
2022-08-11T05:04:47.048Z,6.55
2022-08-11T05:07:34.362Z,6.53
2022-08-11T05:10:11.516Z,6.95
2022-08-11T05:12:43.337Z,6.90
2022-08-11T05:15:42.994Z,6.90
2022-08-11T05:18:32.855Z,6.78
2022-08-11T05:21:22.632Z,6.60
2022-08-11T05:24:12.618Z,6.43
2022-08-11T05:27:02.993Z,6.20
2022-08-11T05:29:57.468Z,6.75
2022-08-11T05:32:42.749Z,6.65
2022-08-11T05:35:11.054Z,6.30
2022-08-11T05:38:17.931Z,6.40
2022-08-11T05:41:06.931Z,6.03
2022-08-11T05:44:20.711Z,6.70
2022-08-11T05:46:58.444Z,6.47
2022-08-11T05:49:47.397Z,6.33
2022-08-11T05:52:34.266Z,6.70
2022-08-11T05:55:28.821Z,6.43
2022-08-11T05:57:57.770Z,6.78
2022-08-11T06:00:25.565Z,6.20
2022-08-11T06:02:55.209Z,6.40
2022-08-11T06:05:25.212Z,6.00
2022-08-11T06:07:55.277Z,6.15
2022-08-11T06:10:33.192Z,6.03
2022-08-11T06:13:02.043Z,6.00
2022-08-11T06:15:30.901Z,6.30
2022-08-11T06:18:00.083Z,5.97
2022-08-11T06:20:32.691Z,5.97
2022-08-11T06:23:03.555Z,6.22
2022-08-11T06:25:35.810Z,5.82
2022-08-11T06:28:04.827Z,5.80
2022-08-11T06:30:39.675Z,5.60
2022-08-11T06:33:09.346Z,5.82
2022-08-11T06:35:39.600Z,5.63
2022-08-11T06:38:08.946Z,5.38
2022-08-11T06:40:42.962Z,5.30
2022-08-11T06:43:13.443Z,5.25
2022-08-11T06:45:43.658Z,5.63
2022-08-11T06:48:16.614Z,5.18
2022-08-11T06:51:12.281Z,5.18
2022-08-11T06:53:40.940Z,5.10
2022-08-11T06:56:29.026Z,4.65
2022-08-11T06:59:15.509Z,4.97
2022-08-11T07:01:49.565Z,4.70
2022-08-11T07:04:22.547Z,4.60
2022-08-11T07:07:15.371Z,4.80
2022-08-11T07:10:11.669Z,4.55
2022-08-11T07:12:59.217Z,4.75
2022-08-11T07:15:47.326Z,4.70
2022-08-11T07:18:50.806Z,4.35
2022-08-11T07:22:01.599Z,4.77
2022-08-11T07:25:01.742Z,4.50
2022-08-11T07:28:05.433Z,4.72
2022-08-11T07:30:38.504Z,3.90
2022-08-11T07:33:06.475Z,4.32
2022-08-11T07:35:36.061Z,4.47
2022-08-11T07:38:07.265Z,4.35
2022-08-11T07:40:36.182Z,4.10
2022-08-11T07:43:04.587Z,3.92
2022-08-11T07:45:49.900Z,4.00
2022-08-11T07:48:36.785Z,4.30
2022-08-11T07:51:22.035Z,4.13
2022-08-11T07:54:03.191Z,3.88
2022-08-11T07:56:55.496Z,3.60
2022-08-11T08:00:02.722Z,4.05
2022-08-11T08:02:47.233Z,3.63
2022-08-11T08:05:34.885Z,3.63
2022-08-11T08:08:20.032Z,3.72
2022-08-11T08:11:05.388Z,4.10
2022-08-11T08:13:50.712Z,4.05
2022-08-11T08:16:36.064Z,3.65
2022-08-11T08:19:03.595Z,3.67
2022-08-11T08:21:32.629Z,3.70
2022-08-11T08:24:00.619Z,3.38
2022-08-11T08:26:51.538Z,3.10
2022-08-11T08:29:37.890Z,4.05
2022-08-11T08:32:05.688Z,3.33
2022-08-11T08:34:33.580Z,3.50
2022-08-11T08:37:02.906Z,3.70
2022-08-11T08:39:46.070Z,3.25
2022-08-11T08:42:14.495Z,3.83
2022-08-11T08:44:44.956Z,3.30
2022-08-11T08:47:14.818Z,3.65
2022-08-11T08:50:04.348Z,3.65
2022-08-11T08:52:43.700Z,3.55
2022-08-11T08:55:17.125Z,3.35
2022-08-11T08:57:46.055Z,3.30
2022-08-11T09:00:19.469Z,3.50
2022-08-11T09:02:50.267Z,3.70
2022-08-11T09:05:19.247Z,3.22
2022-08-11T09:07:48.577Z,3.17
2022-08-11T09:10:17.416Z,3.43
2022-08-11T09:12:45.081Z,3.30
2022-08-11T09:15:13.977Z,2.90
2022-08-11T09:17:44.599Z,3.15
2022-08-11T09:20:13.760Z,3.15
2022-08-11T09:23:35.203Z,3.20
2022-08-11T09:26:08.163Z,3.20
2022-08-11T09:28:36.753Z,3.28
2022-08-11T09:31:05.054Z,2.90
2022-08-11T09:33:32.729Z,3.50
2022-08-11T09:36:21.860Z,3.40
2022-08-11T09:39:06.832Z,3.20
2022-08-11T09:42:00.707Z,3.10
2022-08-11T09:44:41.454Z,3.00
2022-08-11T09:47:15.405Z,3.40
2022-08-11T09:49:44.123Z,3.47
2022-08-11T09:52:13.787Z,2.90
2022-08-11T09:54:41.916Z,3.40
2022-08-11T09:57:28.568Z,3.45
2022-08-11T10:00:12.202Z,3.35
2022-08-11T10:02:46.076Z,2.90
2022-08-11T10:05:33.139Z,3.42
2022-08-11T10:08:01.458Z,3.05
2022-08-11T10:10:29.951Z,3.50
2022-08-11T10:13:00.782Z,3.30
2022-08-11T10:15:34.119Z,3.40
2022-08-11T10:18:22.238Z,3.03
2022-08-11T10:20:51.249Z,3.10
2022-08-11T10:24:00.927Z,3.47
2022-08-11T10:26:42.192Z,3.03
2022-08-11T10:29:25.584Z,3.40
2022-08-11T10:32:19.501Z,3.00
2022-08-11T10:34:51.248Z,3.17
2022-08-11T10:38:05.859Z,3.25
2022-08-11T10:40:15.816Z,2.92
2022-08-11T10:43:02.170Z,3.00
2022-08-11T10:45:50.092Z,3.00
2022-08-11T10:48:21.212Z,2.90
2022-08-11T10:51:06.630Z,3.20
2022-08-11T10:53:51.908Z,2.60
2022-08-11T10:56:37.657Z,2.50
2022-08-11T10:59:08.897Z,2.72
2022-08-11T11:01:39.846Z,2.58
2022-08-11T11:04:10.370Z,2.40
2022-08-11T11:06:44.893Z,2.90
2022-08-11T11:09:18.797Z,2.60
2022-08-11T11:12:06.715Z,2.50
2022-08-11T11:14:58.334Z,2.40
2022-08-11T11:17:48.071Z,2.50
2022-08-11T11:20:37.832Z,2.40
2022-08-11T11:23:06.747Z,2.60
2022-08-11T11:25:39.079Z,2.40
2022-08-11T11:28:34.180Z,2.72
2022-08-11T11:31:10.852Z,2.40
2022-08-11T11:34:06.656Z,2.70
2022-08-11T11:36:44.925Z,2.33
2022-08-11T11:39:12.937Z,2.50
2022-08-11T11:41:41.630Z,2.67
2022-08-11T11:44:12.774Z,2.70
2022-08-11T11:46:40.809Z,2.55
2022-08-11T11:49:16.592Z,2.90
2022-08-11T11:51:45.496Z,2.63
2022-08-11T11:54:15.769Z,2.83
2022-08-11T11:56:43.843Z,2.92
2022-08-11T11:59:29.715Z,3.08
2022-08-11T12:01:57.878Z,3.07
2022-08-11T12:04:27.659Z,3.10
2022-08-11T12:07:15.800Z,2.95
2022-08-11T12:09:43.392Z,2.80
2022-08-11T12:12:28.445Z,2.70
2022-08-11T12:14:56.096Z,2.73
2022-08-11T12:17:24.250Z,2.90
2022-08-11T12:19:53.232Z,2.83
2022-08-11T12:22:42.666Z,3.25
2022-08-11T12:25:27.919Z,3.00
2022-08-11T12:27:56.312Z,3.10
2022-08-11T12:30:24.225Z,3.03
2022-08-11T12:32:53.587Z,3.00
2022-08-11T12:35:22.833Z,2.90
2022-08-11T12:37:51.143Z,3.25
2022-08-11T12:41:12.172Z,3.20
2022-08-11T12:43:46.243Z,3.10
2022-08-11T12:46:27.823Z,2.88
2022-08-11T12:49:14.898Z,3.10
2022-08-11T12:52:11.337Z,3.30
2022-08-11T12:54:52.723Z,3.30
2022-08-11T12:57:42.972Z,3.08
2022-08-11T13:00:28.836Z,3.20
2022-08-11T13:03:14.169Z,3.22
2022-08-11T13:05:45.019Z,3.15
2022-08-11T13:08:15.617Z,3.03
2022-08-11T13:11:01.225Z,3.28
2022-08-11T13:13:52.919Z,3.50
2022-08-11T13:16:17.117Z,3.10
2022-08-11T13:18:44.965Z,3.10
2022-08-11T13:21:19.917Z,2.87
2022-08-11T13:24:01.656Z,2.92
2022-08-11T13:26:43.053Z,3.00
2022-08-11T13:29:17.409Z,3.13
2022-08-11T13:31:45.355Z,3.20
2022-08-11T13:34:13.349Z,2.83
2022-08-11T13:36:41.466Z,2.90
2022-08-11T13:39:11.282Z,2.78
2022-08-11T13:41:39.341Z,2.78
2022-08-11T13:44:07.246Z,2.80
2022-08-11T13:46:35.093Z,2.60
2022-08-11T13:49:04.450Z,2.67
2022-08-11T13:51:34.516Z,2.80
2022-08-11T13:54:04.247Z,2.95
2022-08-11T13:56:33.829Z,2.80
2022-08-11T13:59:02.443Z,3.50
2022-08-11T14:02:19.407Z,3.10
2022-08-11T14:04:30.614Z,3.03
2022-08-11T14:07:00.122Z,2.65
2022-08-11T14:09:28.563Z,2.90
2022-08-11T14:12:21.177Z,2.93
2022-08-11T14:14:54.298Z,3.15
2022-08-11T14:17:47.324Z,3.08
2022-08-11T14:20:14.169Z,3.15
2022-08-11T14:22:58.255Z,3.70
2022-08-11T14:25:59.792Z,3.03
2022-08-11T14:28:31.105Z,3.50
2022-08-11T14:31:02.215Z,3.40
2022-08-11T14:33:58.790Z,3.13
2022-08-11T14:36:18.164Z,3.17
2022-08-11T14:38:45.901Z,3.13
2022-08-11T14:41:30.626Z,3.03
2022-08-11T14:44:17.213Z,3.40
2022-08-11T14:47:24.195Z,3.38
2022-08-11T14:49:58.676Z,3.30
2022-08-11T14:52:40.028Z,3.90
2022-08-11T14:55:25.979Z,3.50
2022-08-11T14:58:04.556Z,3.70
2022-08-11T15:00:35.130Z,3.40
2022-08-11T15:03:12.859Z,3.30
2022-08-11T15:05:41.899Z,3.57
2022-08-11T15:08:45.838Z,3.40
2022-08-11T15:11:28.165Z,3.60
2022-08-11T15:13:57.021Z,3.25
2022-08-11T15:16:43.515Z,3.20
2022-08-11T15:19:12.049Z,3.70
2022-08-11T15:21:56.877Z,3.50
2022-08-11T15:24:25.009Z,3.00
2022-08-11T15:27:13.481Z,3.40
2022-08-11T15:30:00.026Z,3.22
2022-08-11T15:32:46.997Z,3.10
2022-08-11T15:35:39.022Z,3.20
2022-08-11T15:38:09.581Z,3.50
2022-08-11T15:41:08.385Z,3.10
2022-08-11T15:43:57.374Z,2.97
2022-08-11T15:46:30.815Z,3.03
2022-08-11T15:49:03.998Z,2.90
2022-08-11T15:51:34.191Z,3.10
2022-08-11T15:54:08.614Z,2.63
2022-08-11T15:56:38.648Z,2.90
2022-08-11T15:59:42.238Z,2.40
2022-08-11T16:02:31.234Z,2.60
2022-08-11T16:05:01.976Z,2.53
2022-08-11T16:07:32.098Z,2.60
2022-08-11T16:10:04.899Z,2.50
2022-08-11T16:12:33.626Z,2.50
2022-08-11T16:15:20.749Z,2.72
2022-08-11T16:17:49.829Z,2.60
2022-08-11T16:20:21.360Z,2.30
2022-08-11T16:23:00.298Z,2.22
2022-08-11T16:27:06.118Z,2.30
2022-08-11T16:28:17.923Z,2.35
2022-08-11T16:30:46.394Z,2.35
2022-08-11T16:33:48.129Z,2.55
2022-08-11T16:36:21.710Z,2.47
2022-08-11T16:38:50.440Z,2.47
2022-08-11T16:41:40.452Z,2.25
2022-08-11T16:44:37.202Z,2.03
2022-08-11T16:47:06.647Z,2.10
2022-08-11T16:49:36.147Z,2.10
2022-08-11T16:52:15.954Z,2.20
2022-08-11T16:54:46.406Z,2.30
2022-08-11T16:57:33.698Z,2.20
2022-08-11T17:00:03.038Z,2.10
2022-08-11T17:02:52.719Z,2.08
2022-08-11T17:05:53.791Z,1.90
2022-08-11T17:08:44.421Z,1.90
2022-08-11T17:11:45.008Z,2.05
2022-08-11T17:14:14.032Z,1.98
2022-08-11T17:16:42.047Z,1.85
2022-08-11T17:19:11.126Z,2.10
2022-08-11T17:22:00.017Z,2.08
2022-08-11T17:24:28.772Z,1.90
2022-08-11T17:26:58.191Z,2.20
2022-08-11T17:29:28.713Z,2.10
2022-08-11T17:32:14.260Z,2.00
2022-08-11T17:35:01.200Z,2.00
2022-08-11T17:37:30.505Z,1.98
2022-08-11T17:40:01.637Z,1.77
2022-08-11T17:42:48.124Z,2.00
2022-08-11T17:45:34.505Z,1.90
2022-08-11T17:48:19.831Z,1.92
2022-08-11T17:50:48.036Z,1.95
2022-08-11T17:53:33.311Z,2.00
2022-08-11T17:56:20.594Z,1.88
2022-08-11T17:59:09.711Z,1.83
2022-08-11T18:01:37.958Z,2.00
2022-08-11T18:04:09.315Z,1.90
2022-08-11T18:06:37.409Z,2.00
2022-08-11T18:09:24.012Z,2.00
2022-08-11T18:12:12.802Z,2.00
2022-08-11T18:15:00.714Z,2.00
2022-08-11T18:17:45.867Z,1.90
2022-08-11T18:20:31.373Z,1.73
2022-08-11T18:23:17.446Z,1.80
2022-08-11T18:26:07.113Z,1.80
2022-08-11T18:28:56.664Z,1.80
2022-08-11T18:31:42.504Z,1.80
2022-08-11T18:34:29.273Z,2.00
2022-08-11T18:37:21.747Z,1.92
2022-08-11T18:40:11.899Z,1.83
2022-08-11T18:42:57.847Z,1.90
2022-08-11T18:45:45.652Z,1.98
2022-08-11T18:48:33.964Z,1.90
2022-08-11T18:51:30.982Z,1.98
2022-08-11T18:54:24.156Z,2.00
2022-08-11T18:57:10.008Z,2.05
2022-08-11T18:59:56.331Z,1.90
2022-08-11T19:02:49.450Z,2.20
2022-08-11T19:06:05.977Z,1.90
2022-08-11T19:08:42.226Z,2.00
2022-08-11T19:11:27.962Z,2.20
2022-08-11T19:14:13.979Z,2.45
2022-08-11T19:16:59.611Z,2.33
2022-08-11T19:19:47.820Z,2.25
2022-08-11T19:22:34.633Z,2.33
2022-08-11T19:25:25.125Z,2.22
2022-08-11T19:28:11.972Z,2.58
2022-08-11T19:30:57.640Z,2.30
2022-08-11T19:34:02.922Z,2.53
2022-08-11T19:36:50.182Z,2.20
2022-08-11T19:39:35.643Z,2.60
2022-08-11T19:42:20.914Z,2.33
2022-08-11T19:45:06.208Z,2.50
2022-08-11T19:47:59.146Z,2.58
2022-08-11T19:50:57.072Z,2.27
2022-08-11T19:53:44.882Z,2.10
2022-08-11T19:56:30.306Z,2.38
2022-08-11T19:59:16.423Z,2.58
2022-08-11T20:02:14.361Z,2.72
2022-08-11T20:05:00.121Z,2.77
2022-08-11T20:07:46.362Z,2.67
2022-08-11T20:10:34.814Z,2.78
2022-08-11T20:13:21.467Z,2.47
2022-08-11T20:16:07.038Z,2.55
2022-08-11T20:18:52.935Z,2.80
2022-08-11T20:21:38.819Z,2.80
2022-08-11T20:24:24.030Z,2.60
2022-08-11T20:27:24.137Z,2.55
2022-08-11T20:30:11.325Z,2.85
2022-08-11T20:32:57.743Z,4.13
2022-08-11T20:35:43.187Z,2.78
2022-08-11T20:38:30.080Z,2.72
2022-08-11T20:41:16.014Z,2.80
2022-08-11T20:44:05.531Z,2.78
2022-08-11T20:46:55.118Z,2.80
2022-08-11T20:49:50.395Z,3.00
2022-08-11T20:52:40.038Z,3.05
2022-08-11T20:55:51.450Z,3.05
2022-08-11T20:58:47.003Z,2.72
2022-08-11T21:01:41.086Z,3.10
2022-08-11T21:04:26.322Z,3.20
2022-08-11T21:07:15.110Z,2.78
2022-08-11T21:10:12.038Z,2.70
2022-08-11T21:13:24.068Z,2.83
2022-08-11T21:16:10.228Z,3.10
2022-08-11T21:19:10.949Z,3.20
2022-08-11T21:21:56.254Z,3.00
2022-08-11T21:24:48.020Z,2.90
2022-08-11T21:27:34.310Z,3.00
2022-08-11T21:30:20.755Z,2.80
2022-08-11T21:33:05.504Z,3.30
2022-08-11T21:35:51.977Z,3.03
2022-08-11T21:38:36.797Z,3.00
2022-08-11T21:41:22.175Z,3.15
2022-08-11T21:44:08.589Z,3.00
2022-08-11T21:46:54.932Z,2.85
2022-08-11T21:49:40.320Z,2.92
2022-08-11T21:52:27.146Z,2.80
2022-08-11T21:55:12.936Z,3.20
2022-08-11T21:57:58.854Z,3.30
2022-08-11T22:00:44.063Z,3.28
2022-08-11T22:03:29.501Z,3.10
2022-08-11T22:06:19.997Z,2.80
2022-08-11T22:09:07.934Z,2.97
2022-08-11T22:12:30.006Z,3.00
2022-08-11T22:14:58.367Z,2.92
2022-08-11T22:17:43.527Z,3.10
2022-08-11T22:20:29.728Z,2.80
2022-08-11T22:23:15.613Z,3.25
2022-08-11T22:26:07.124Z,3.40
2022-08-11T22:28:52.273Z,3.13
2022-08-11T22:31:37.654Z,3.13
2022-08-11T22:34:23.046Z,3.25
2022-08-11T22:37:08.398Z,3.22
2022-08-11T22:40:02.349Z,3.40
2022-08-11T22:42:49.489Z,3.13
2022-08-11T22:45:34.304Z,3.10
2022-08-11T22:48:20.720Z,3.42
2022-08-11T22:51:06.135Z,3.10
2022-08-11T22:53:57.164Z,3.40
2022-08-11T22:56:43.202Z,3.40
2022-08-11T22:59:30.067Z,3.03
2022-08-11T23:02:14.926Z,3.28
2022-08-11T23:04:59.834Z,3.00
2022-08-11T23:07:50.914Z,2.87
2022-08-11T23:10:37.588Z,3.33
2022-08-11T23:13:22.773Z,2.95
2022-08-11T23:16:09.449Z,3.08
2022-08-11T23:18:54.761Z,2.97
2022-08-11T23:21:40.442Z,3.00
2022-08-11T23:24:25.755Z,3.50
2022-08-11T23:27:11.105Z,3.17
2022-08-11T23:29:56.925Z,3.00
2022-08-11T23:32:44.733Z,3.15
2022-08-11T23:35:40.562Z,3.23
2022-08-11T23:38:36.268Z,2.90
2022-08-11T23:41:21.862Z,3.42
2022-08-11T23:44:07.724Z,3.00
2022-08-11T23:46:53.588Z,3.58
2022-08-11T23:49:40.918Z,3.30
2022-08-11T23:52:26.292Z,3.60
2022-08-11T23:55:11.213Z,3.75
2022-08-11T23:57:56.583Z,3.55
